Time,TemperatureF,DewpointF,PressureIn,WindDirection,WindDirectionDegrees,WindSpeedMPH,WindSpeedGustMPH,Humidity,HourlyPrecipIn,Conditions,Clouds,dailyrainin,SoftwareType,DateUTC
2013-07-24 07:44:00,75.9,47.1,28.59,NE,35,0.0,0.0,36,0.00,,CLR,0.00,VWS V14.01,2013-07-24 11:44:00,
2013-07-24 07:45:00,75.9,47.1,28.59,NE,35,0.0,0.0,36,0.00,,CLR,0.00,VWS V14.01,2013-07-24 11:45:00,
2013-07-24 07:51:00,75.9,46.3,28.59,NNW,334,2.2,3.1,35,0.00,,CLR,0.00,VWS V14.01,2013-07-24 11:51:00,
2013-07-24 07:55:00,75.7,46.2,28.59,NE,34,0.0,2.7,35,0.00,,CLR,0.00,VWS V14.01,2013-07-24 11:55:00,
2013-07-24 08:00:00,75.4,46.6,28.59,WSW,239,0.0,0.0,36,0.00,,CLR,0.00,VWS V14.01,2013-07-24 12:00:00,
2013-07-24 08:06:00,75.2,45.7,28.59,SSW,203,2.7,2.7,35,0.00,,FEW075,0.00,VWS V14.01,2013-07-24 12:06:00,
2013-07-24 08:11:00,74.7,46.0,28.59,WSW,246,0.0,0.0,36,0.00,,FEW075,0.00,VWS V14.01,2013-07-24 12:11:00,
2013-07-24 08:16:00,74.8,45.4,28.59,NW,305,0.0,0.0,35,0.00,,FEW075,0.00,VWS V14.01,2013-07-24 12:16:00,
2013-07-24 08:21:00,75.0,45.5,28.59,NW,322,0.0,0.0,35,0.00,,FEW075,0.00,VWS V14.01,2013-07-24 12:21:00,
2013-07-24 08:26:00,75.0,47.7,28.59,SW,223,0.0,0.0,38,0.00,,FEW075,0.00,VWS V14.01,2013-07-24 12:26:00,
2013-07-24 08:31:00,75.0,44.8,28.59,North,6,0.0,0.0,34,0.00,,FEW075,0.00,VWS V14.01,2013-07-24 12:31:00,
2013-07-24 08:36:00,75.0,44.8,28.59,West,281,0.0,0.0,34,0.00,,FEW075,0.00,VWS V14.01,2013-07-24 12:36:00,
2013-07-24 08:41:00,75.2,46.4,28.59,SW,221,0.0,0.0,36,0.00,,FEW075,0.00,VWS V14.01,2013-07-24 12:41:00,
2013-07-24 08:46:00,75.2,45.7,28.59,SW,221,0.0,0.0,35,0.00,,FEW075,0.00,VWS V14.01,2013-07-24 12:46:00,
2013-07-24 08:52:00,75.4,43.5,28.61,NE,34,0.0,0.0,32,0.00,,FEW075,0.00,VWS V14.01,2013-07-24 12:52:00,
2013-07-24 08:57:00,75.7,44.6,28.61,SW,228,0.0,2.7,33,0.00,,FEW075,0.00,VWS V14.01,2013-07-24 12:57:00,
2013-07-24 09:02:00,75.9,44.8,28.61,SW,228,0.0,0.0,33,0.00,,FEW075,0.00,VWS V14.01,2013-07-24 13:02:00,
2013-07-24 09:07:00,75.9,44.0,28.61,NE,38,0.0,0.0,32,0.00,,SCT110,0.00,VWS V14.01,2013-07-24 13:07:00,
2013-07-24 09:12:00,76.1,44.9,28.61,North,8,0.0,0.0,33,0.00,,SCT110,0.00,VWS V14.01,2013-07-24 13:12:00,
2013-07-24 09:17:00,76.1,44.9,28.61,NW,318,2.2,2.2,33,0.00,,SCT110,0.00,VWS V14.01,2013-07-24 13:17:00,
2013-07-24 09:22:00,75.7,43.8,28.61,North,0,0.0,2.7,32,0.00,,SCT110,0.00,VWS V14.01,2013-07-24 13:22:00,
2013-07-24 09:27:00,75.9,44.0,28.61,NW,306,0.0,0.0,32,0.00,,SCT110,0.00,VWS V14.01,2013-07-24 13:27:00,
2013-07-24 09:32:00,75.7,43.8,28.61,NW,311,0.0,0.0,32,0.00,,SCT110,0.00,VWS V14.01,2013-07-24 13:32:00,
2013-07-24 09:37:00,75.9,44.8,28.61,NW,311,0.0,0.0,33,0.00,,SCT110,0.00,VWS V14.01,2013-07-24 13:37:00,
2013-07-24 09:42:00,75.9,44.8,28.61,NW,311,0.0,0.0,33,0.00,,SCT110,0.00,VWS V14.01,2013-07-24 13:42:00,
2013-07-24 09:47:00,76.1,47.2,28.61,NNE,19,0.0,0.0,36,0.00,,SCT110,0.00,VWS V14.01,2013-07-24 13:47:00,
2013-07-24 09:52:00,76.5,46.0,28.61,West,268,0.0,0.0,34,0.00,,SCT110,0.00,VWS V14.01,2013-07-24 13:52:00,
2013-07-24 09:57:00,76.6,46.2,28.61,West,268,0.0,0.0,34,0.00,,SCT110,0.00,VWS V14.01,2013-07-24 13:57:00,
2013-07-24 10:02:00,76.8,47.9,28.64,NW,310,3.1,3.1,36,0.00,,SCT110,0.00,VWS V14.01,2013-07-24 14:02:00,
2013-07-24 10:07:00,76.8,45.6,28.64,SW,217,3.1,3.1,33,0.00,,SCT110,0.00,VWS V14.01,2013-07-24 14:07:00,
2013-07-24 10:12:00,76.8,46.3,28.64,SW,217,0.0,0.0,34,0.00,,SCT110,0.00,VWS V14.01,2013-07-24 14:12:00,
2013-07-24 10:17:00,76.8,45.6,28.64,SW,219,0.0,3.1,33,0.00,,SCT110,0.00,VWS V14.01,2013-07-24 14:17:00,
2013-07-24 10:23:00,76.8,47.1,28.64,WSW,242,2.7,2.7,35,0.00,,SCT110,0.00,VWS V14.01,2013-07-24 14:23:00,
2013-07-24 10:28:00,77.2,46.7,28.64,SSW,205,2.7,2.7,34,0.00,,SCT110,0.00,VWS V14.01,2013-07-24 14:28:00,
2013-07-24 10:33:00,78.1,46.7,28.64,SSW,197,2.2,2.2,33,0.00,,SCT110,0.00,VWS V14.01,2013-07-24 14:33:00,
2013-07-24 10:38:00,79.3,45.2,28.64,SSW,194,2.2,3.1,30,0.00,,SCT110,0.00,VWS V14.01,2013-07-24 14:38:00,
2013-07-24 10:43:00,79.5,45.4,28.64,ESE,117,0.0,0.0,30,0.00,,SCT110,0.00,VWS V14.01,2013-07-24 14:43:00,
2013-07-24 10:48:00,79.2,45.1,28.64,SE,130,0.0,2.7,30,0.00,,SCT110,0.00,VWS V14.01,2013-07-24 14:48:00,
2013-07-24 10:53:00,78.8,45.6,28.64,SSW,194,2.7,2.7,31,0.00,,SCT110,0.00,VWS V14.01,2013-07-24 14:53:00,
2013-07-24 10:58:00,78.6,47.1,28.64,SSW,196,0.0,2.7,33,0.00,,SCT110,0.00,VWS V14.01,2013-07-24 14:58:00,
2013-07-24 11:03:00,78.4,46.2,28.64,SW,219,3.1,3.1,32,0.00,,SCT110,0.00,VWS V14.01,2013-07-24 15:03:00,
2013-07-24 11:08:00,79.3,46.1,28.64,SSW,195,2.7,2.7,31,0.00,,SCT110,0.00,VWS V14.01,2013-07-24 15:08:00,
2013-07-24 11:13:00,80.1,46.7,28.64,West,270,0.0,0.0,31,0.00,,SCT110,0.00,VWS V14.01,2013-07-24 15:13:00,
2013-07-24 11:18:00,80.6,46.3,28.64,ENE,76,2.7,2.7,30,0.00,,SCT110,0.00,VWS V14.01,2013-07-24 15:18:00,
2013-07-24 11:23:00,81.1,46.8,28.64,West,259,3.1,3.1,30,0.00,,SCT110,0.00,VWS V14.01,2013-07-24 15:23:00,
2013-07-24 11:28:00,81.0,46.6,28.64,SSW,197,0.0,0.0,30,0.00,,SCT110,0.00,VWS V14.01,2013-07-24 15:28:00,
2013-07-24 11:33:00,81.9,47.4,28.64,SSW,193,2.7,2.7,30,0.00,,SCT110,0.00,VWS V14.01,2013-07-24 15:33:00,
2013-07-24 11:38:00,81.9,46.5,28.64,NNW,345,5.8,5.8,29,0.00,,SCT110,0.00,VWS V14.01,2013-07-24 15:38:00,
2013-07-24 11:43:00,82.2,46.8,28.64,NNE,24,2.7,2.7,29,0.00,,SCT110,0.00,VWS V14.01,2013-07-24 15:43:00,
2013-07-24 11:48:00,81.9,46.5,28.64,SW,219,0.0,0.0,29,0.00,,SCT110,0.00,VWS V14.01,2013-07-24 15:48:00,
2013-07-24 11:53:00,82.0,46.7,28.64,SE,140,2.2,2.2,29,0.00,,SCT110,0.00,VWS V14.01,2013-07-24 15:53:00,
2013-07-24 11:58:00,82.8,48.2,28.64,West,270,2.7,4.0,30,0.00,,SCT110,0.00,VWS V14.01,2013-07-24 15:58:00,
2013-07-24 12:03:00,82.6,48.0,28.64,SSW,207,2.2,2.2,30,0.00,,FEW040,0.00,VWS V14.01,2013-07-24 16:03:00,
2013-07-24 12:08:00,83.3,47.8,28.64,SSW,202,2.2,2.2,29,0.00,,FEW040,0.00,VWS V14.01,2013-07-24 16:08:00,
2013-07-24 12:13:00,83.7,48.1,28.64,ENE,66,3.1,3.1,29,0.00,,FEW040,0.00,VWS V14.01,2013-07-24 16:13:00,
2013-07-24 12:18:00,83.8,48.2,28.64,SSW,213,2.7,2.7,29,0.00,,FEW040,0.00,VWS V14.01,2013-07-24 16:18:00,
2013-07-24 12:23:00,82.9,44.6,28.64,WSW,246,0.0,2.2,26,0.00,,FEW040,0.00,VWS V14.01,2013-07-24 16:23:00,
2013-07-24 12:28:00,82.0,46.7,28.64,SSW,208,0.0,0.0,29,0.00,,FEW040,0.00,VWS V14.01,2013-07-24 16:28:00,
2013-07-24 12:33:00,81.9,48.3,28.64,SSW,203,3.1,3.6,31,0.00,,FEW040,0.00,VWS V14.01,2013-07-24 16:33:00,
2013-07-24 12:38:00,81.5,46.2,28.64,SSW,197,0.0,0.0,29,0.00,,FEW040,0.00,VWS V14.01,2013-07-24 16:38:00,
2013-07-24 12:43:00,81.9,47.4,28.64,East,90,0.0,2.2,30,0.00,,FEW040,0.00,VWS V14.01,2013-07-24 16:43:00,
2013-07-24 12:48:00,82.0,44.8,28.64,North,353,0.0,2.2,27,0.00,,FEW040,0.00,VWS V14.01,2013-07-24 16:48:00,
2013-07-24 12:54:00,82.4,44.1,28.64,SSW,194,0.0,0.0,26,0.00,,FEW040,0.00,VWS V14.01,2013-07-24 16:54:00,
2013-07-24 12:59:00,82.2,46.8,28.64,SSW,197,0.0,0.0,29,0.00,,FEW040,0.00,VWS V14.01,2013-07-24 16:59:00,
2013-07-24 13:04:00,82.2,47.7,28.64,East,93,0.0,0.0,30,0.00,,BKN044,0.00,VWS V14.01,2013-07-24 17:04:00,
2013-07-24 13:09:00,82.6,47.1,28.64,SSE,162,4.0,5.4,29,0.00,,BKN044,0.00,VWS V14.01,2013-07-24 17:09:00,
2013-07-24 13:14:00,82.8,47.3,28.64,WSW,255,2.7,2.7,29,0.00,,BKN044,0.00,VWS V14.01,2013-07-24 17:14:00,
2013-07-24 13:19:00,82.9,44.6,28.64,West,267,0.0,0.0,26,0.00,,BKN044,0.00,VWS V14.01,2013-07-24 17:19:00,
2013-07-24 13:24:00,82.6,47.1,28.64,SSW,193,3.1,4.0,29,0.00,,BKN044,0.00,VWS V14.01,2013-07-24 17:24:00,
2013-07-24 13:29:00,82.2,47.7,28.64,SSW,193,0.0,0.0,30,0.00,,BKN044,0.00,VWS V14.01,2013-07-24 17:29:00,
2013-07-24 13:34:00,82.9,48.3,28.64,WSW,248,4.0,4.0,30,0.00,,BKN044,0.00,VWS V14.01,2013-07-24 17:34:00,
2013-07-24 13:39:00,83.3,47.8,28.64,West,262,0.0,0.0,29,0.00,,BKN044,0.00,VWS V14.01,2013-07-24 17:39:00,
2013-07-24 13:44:00,83.3,47.8,28.64,NNW,337,3.1,3.1,29,0.00,,BKN044,0.00,VWS V14.01,2013-07-24 17:44:00,
2013-07-24 13:49:00,83.7,47.1,28.61,West,275,3.1,3.6,28,0.00,,BKN044,0.00,VWS V14.01,2013-07-24 17:49:00,
2013-07-24 13:54:00,83.8,43.2,28.61,West,260,3.6,3.6,24,0.00,,BKN044,0.00,VWS V14.01,2013-07-24 17:54:00,
2013-07-24 13:59:00,84.4,41.4,28.61,North,4,0.0,3.6,22,0.00,,BKN044,0.00,VWS V14.01,2013-07-24 17:59:00,
2013-07-24 14:04:00,84.2,45.6,28.61,SW,221,3.6,4.0,26,0.00,,SCT045,0.00,VWS V14.01,2013-07-24 18:04:00,
2013-07-24 14:10:00,84.0,45.5,28.61,SW,227,0.0,0.0,26,0.00,,SCT045,0.00,VWS V14.01,2013-07-24 18:10:00,
2013-07-24 14:15:00,84.2,44.6,28.61,WSW,245,0.0,0.0,25,0.00,,SCT045,0.00,VWS V14.01,2013-07-24 18:15:00,
2013-07-24 14:20:00,84.6,46.9,28.61,West,278,5.4,5.4,27,0.00,,SCT045,0.00,VWS V14.01,2013-07-24 18:20:00,
2013-07-24 14:25:00,84.2,46.6,28.61,WSW,251,4.0,4.0,27,0.00,,SCT045,0.00,VWS V14.01,2013-07-24 18:25:00,
2013-07-24 14:30:00,84.0,45.5,28.61,South,191,2.7,2.7,26,0.00,,SCT045,0.00,VWS V14.01,2013-07-24 18:30:00,
2013-07-24 14:35:00,84.0,45.5,28.61,SW,222,5.4,5.4,26,0.00,,SCT045,0.00,VWS V14.01,2013-07-24 18:35:00,
2013-07-24 14:40:00,84.0,47.4,28.61,West,260,3.1,3.1,28,0.00,,SCT045,0.00,VWS V14.01,2013-07-24 18:40:00,
2013-07-24 14:45:00,84.2,47.6,28.61,West,264,3.6,4.0,28,0.00,,SCT045,0.00,VWS V14.01,2013-07-24 18:45:00,
2013-07-24 14:50:00,83.8,44.3,28.61,WNW,296,3.1,3.1,25,0.00,,SCT045,0.00,VWS V14.01,2013-07-24 18:50:00,
2013-07-24 14:55:00,84.0,43.4,28.61,SW,231,0.0,0.0,24,0.00,,SCT045,0.00,VWS V14.01,2013-07-24 18:55:00,
2013-07-24 15:00:00,84.2,43.5,28.61,West,275,2.7,2.7,24,0.00,,SCT045,0.00,VWS V14.01,2013-07-24 19:00:00,
2013-07-24 15:05:00,84.2,43.5,28.61,WSW,249,0.0,2.2,24,0.00,,SCT070,0.00,VWS V14.01,2013-07-24 19:05:00,
2013-07-24 15:10:00,84.6,42.7,28.61,SW,217,0.0,0.0,23,0.00,,SCT070,0.00,VWS V14.01,2013-07-24 19:10:00,
2013-07-24 15:15:00,84.4,42.6,28.61,West,274,3.6,4.0,23,0.00,,SCT070,0.00,VWS V14.01,2013-07-24 19:15:00,
2013-07-24 15:20:00,84.4,42.6,28.61,SW,219,3.1,3.1,23,0.00,,SCT070,0.00,VWS V14.01,2013-07-24 19:20:00,
2013-07-24 15:26:00,84.4,45.8,28.61,SSW,199,3.6,3.6,26,0.00,,SCT070,0.00,VWS V14.01,2013-07-24 19:26:00,
2013-07-24 15:31:00,84.4,42.6,28.61,West,272,3.1,3.1,23,0.00,,SCT070,0.00,VWS V14.01,2013-07-24 19:31:00,
2013-07-24 15:36:00,84.4,44.8,28.61,West,273,3.6,3.6,25,0.00,,SCT070,0.00,VWS V14.01,2013-07-24 19:36:00,
2013-07-24 15:41:00,84.7,45.1,28.61,West,267,5.4,5.4,25,0.00,,SCT070,0.00,VWS V14.01,2013-07-24 19:41:00,
2013-07-24 15:46:00,84.7,44.0,28.61,WSW,246,3.1,3.1,24,0.00,,SCT070,0.00,VWS V14.01,2013-07-24 19:46:00,
2013-07-24 15:51:00,84.9,43.0,28.61,SSW,192,2.7,2.7,23,0.00,,SCT070,0.00,VWS V14.01,2013-07-24 19:51:00,
2013-07-24 15:56:00,84.9,43.0,28.61,WNW,283,2.7,4.0,23,0.00,,SCT070,0.00,VWS V14.01,2013-07-24 19:56:00,
2013-07-24 16:01:00,84.9,41.9,28.61,SSW,211,4.9,4.9,22,0.00,,SCT070,0.00,VWS V14.01,2013-07-24 20:01:00,
2013-07-24 16:06:00,84.7,39.3,28.61,SSW,209,8.1,8.1,20,0.00,,SCT060,0.00,VWS V14.01,2013-07-24 20:06:00,
2013-07-24 16:11:00,84.6,40.4,28.61,SW,220,2.7,4.0,21,0.00,,SCT060,0.00,VWS V14.01,2013-07-24 20:11:00,
2013-07-24 16:16:00,84.7,40.5,28.61,SW,214,8.3,8.3,21,0.00,,SCT060,0.00,VWS V14.01,2013-07-24 20:16:00,
2013-07-24 16:22:00,85.3,43.3,28.61,WSW,248,4.0,4.0,23,0.00,,SCT060,0.00,VWS V14.01,2013-07-24 20:22:00,
2013-07-24 16:27:00,84.9,40.7,28.61,WSW,246,6.3,6.3,21,0.00,,SCT060,0.00,VWS V14.01,2013-07-24 20:27:00,
2013-07-24 16:32:00,85.3,41.0,28.61,WSW,241,4.0,6.3,21,0.00,,SCT060,0.00,VWS V14.01,2013-07-24 20:32:00,
2013-07-24 16:37:00,84.9,40.7,28.61,West,268,5.8,5.8,21,0.00,,SCT060,0.00,VWS V14.01,2013-07-24 20:37:00,
2013-07-24 16:42:00,84.6,40.4,28.61,WNW,288,4.0,4.0,21,0.00,,SCT060,0.00,VWS V14.01,2013-07-24 20:42:00,
2013-07-24 16:47:00,84.4,40.2,28.61,WSW,250,2.7,2.7,21,0.00,,SCT060,0.00,VWS V14.01,2013-07-24 20:47:00,
2013-07-24 16:52:00,84.4,40.2,28.61,West,279,4.0,4.0,21,0.00,,SCT060,0.00,VWS V14.01,2013-07-24 20:52:00,
2013-07-24 16:57:00,84.2,40.1,28.61,SW,222,6.3,6.3,21,0.00,,SCT060,0.00,VWS V14.01,2013-07-24 20:57:00,
2013-07-24 17:02:00,84.2,41.3,28.61,WSW,248,3.6,3.6,22,0.00,,SCT060,0.00,VWS V14.01,2013-07-24 21:02:00,
2013-07-24 17:07:00,84.0,41.1,28.61,South,186,5.8,7.6,22,0.00,,SCT060,0.00,VWS V14.01,2013-07-24 21:07:00,
2013-07-24 17:12:00,83.7,39.6,28.61,SW,236,3.1,5.4,21,0.00,,SCT060,0.00,VWS V14.01,2013-07-24 21:12:00,
2013-07-24 17:17:00,83.1,40.4,28.61,SSW,201,2.7,3.1,22,0.00,,SCT060,0.00,VWS V14.01,2013-07-24 21:17:00,
2013-07-24 17:23:00,83.3,40.5,28.61,WSW,241,4.0,4.0,22,0.00,,SCT060,0.00,VWS V14.01,2013-07-24 21:23:00,
2013-07-24 17:28:00,83.1,40.4,28.61,SW,229,3.1,3.6,22,0.00,,SCT060,0.00,VWS V14.01,2013-07-24 21:28:00,
2013-07-24 17:33:00,82.9,40.2,28.61,WNW,292,3.1,3.1,22,0.00,,SCT060,0.00,VWS V14.01,2013-07-24 21:33:00,
2013-07-24 17:38:00,83.1,40.4,28.61,WSW,244,4.9,4.9,22,0.00,,SCT060,0.00,VWS V14.01,2013-07-24 21:38:00,
2013-07-24 17:43:00,83.1,41.5,28.61,WSW,253,3.1,4.0,23,0.00,,SCT060,0.00,VWS V14.01,2013-07-24 21:43:00,
2013-07-24 17:48:00,83.1,41.5,28.61,South,190,2.2,2.7,23,0.00,,SCT060,0.00,VWS V14.01,2013-07-24 21:48:00,
2013-07-24 17:53:00,83.1,41.5,28.61,West,273,3.1,3.1,23,0.00,,SCT060,0.00,VWS V14.01,2013-07-24 21:53:00,
2013-07-24 17:58:00,83.1,41.5,28.61,WNW,297,2.7,2.7,23,0.00,,SCT060,0.00,VWS V14.01,2013-07-24 21:58:00,
2013-07-24 18:03:00,82.9,42.5,28.61,SSW,196,0.0,0.0,24,0.00,,SCT080,0.00,VWS V14.01,2013-07-24 22:03:00,
2013-07-24 18:08:00,82.6,39.9,28.61,WNW,285,2.2,2.2,22,0.00,,SCT080,0.00,VWS V14.01,2013-07-24 22:08:00,
2013-07-24 18:13:00,82.6,39.9,28.61,West,271,0.0,2.7,22,0.00,,SCT080,0.00,VWS V14.01,2013-07-24 22:13:00,
2013-07-24 18:18:00,82.2,41.9,28.61,SW,234,2.2,2.7,24,0.00,,SCT080,0.00,VWS V14.01,2013-07-24 22:18:00,
2013-07-24 18:23:00,81.9,41.6,28.61,West,265,5.4,5.4,24,0.00,,SCT080,0.00,VWS V14.01,2013-07-24 22:23:00,
2013-07-24 18:29:00,81.7,42.5,28.61,SW,219,4.0,4.0,25,0.00,,SCT080,0.00,VWS V14.01,2013-07-24 22:29:00,
2013-07-24 18:34:00,81.5,43.3,28.61,WSW,250,5.4,5.4,26,0.00,,SCT080,0.00,VWS V14.01,2013-07-24 22:34:00,
2013-07-24 18:39:00,81.1,42.0,28.61,WSW,238,2.2,2.2,25,0.00,,SCT080,0.00,VWS V14.01,2013-07-24 22:39:00,
2013-07-24 18:44:00,81.1,44.0,28.61,WNW,283,3.1,3.1,27,0.00,,SCT080,0.00,VWS V14.01,2013-07-24 22:44:00,
2013-07-24 18:49:00,81.0,42.9,28.61,SSW,207,5.4,5.4,26,0.00,,SCT080,0.00,VWS V14.01,2013-07-24 22:49:00,
2013-07-24 18:54:00,81.0,43.9,28.61,West,266,2.7,2.7,27,0.00,,SCT080,0.00,VWS V14.01,2013-07-24 22:54:00,
2013-07-24 18:59:00,81.0,43.9,28.61,SW,236,2.2,2.7,27,0.00,,SCT080,0.00,VWS V14.01,2013-07-24 22:59:00,
2013-07-24 19:04:00,80.8,45.6,28.61,WSW,238,0.0,2.2,29,0.00,,FEW080,0.00,VWS V14.01,2013-07-24 23:04:00,
2013-07-24 19:09:00,80.8,44.7,28.61,SSW,201,3.1,3.1,28,0.00,,FEW080,0.00,VWS V14.01,2013-07-24 23:09:00,
2013-07-24 19:14:00,80.8,45.6,28.61,SSW,207,2.7,2.7,29,0.00,,FEW080,0.00,VWS V14.01,2013-07-24 23:14:00,
2013-07-24 19:19:00,80.4,46.2,28.61,West,263,4.0,4.0,30,0.00,,FEW080,0.00,VWS V14.01,2013-07-24 23:19:00,
2013-07-24 19:24:00,80.2,45.1,28.61,WSW,250,2.7,2.7,29,0.00,,FEW080,0.00,VWS V14.01,2013-07-24 23:24:00,
2013-07-24 19:29:00,79.9,45.7,28.61,WSW,250,0.0,0.0,30,0.00,,FEW080,0.00,VWS V14.01,2013-07-24 23:29:00,
2013-07-24 19:34:00,79.7,45.6,28.61,WSW,250,0.0,2.7,30,0.00,,FEW080,0.00,VWS V14.01,2013-07-24 23:34:00,
2013-07-24 19:39:00,79.3,46.1,28.61,WSW,250,0.0,0.0,31,0.00,,FEW080,0.00,VWS V14.01,2013-07-24 23:39:00,
2013-07-24 19:44:00,79.0,45.8,28.61,WSW,250,0.0,0.0,31,0.00,,FEW080,0.00,VWS V14.01,2013-07-24 23:44:00,
2013-07-24 19:50:00,78.8,46.5,28.61,WSW,255,2.2,2.2,32,0.00,,FEW080,0.00,VWS V14.01,2013-07-24 23:50:00,
2013-07-24 19:55:00,78.3,46.0,28.61,WSW,253,2.7,2.7,32,0.00,,FEW080,0.00,VWS V14.01,2013-07-24 23:55:00,
2013-07-24 20:00:00,78.1,45.8,28.61,WSW,253,0.0,2.2,32,0.00,,FEW080,0.00,VWS V14.01,2013-07-25 00:00:00,
2013-07-24 20:05:00,77.7,46.3,28.61,WSW,253,0.0,0.0,33,0.00,,SCT080,0.00,VWS V14.01,2013-07-25 00:05:00,
2013-07-24 20:10:00,77.4,45.2,28.61,WSW,253,0.0,0.0,32,0.00,,SCT080,0.00,VWS V14.01,2013-07-25 00:10:00,
2013-07-24 20:15:00,77.0,45.7,28.61,WSW,253,0.0,0.0,33,0.00,,SCT080,0.00,VWS V14.01,2013-07-25 00:15:00,
2013-07-24 20:20:00,76.8,45.6,28.64,WSW,253,0.0,0.0,33,0.00,,SCT080,0.00,VWS V14.01,2013-07-25 00:20:00,
2013-07-24 20:25:00,76.5,45.2,28.64,WSW,253,0.0,0.0,33,0.00,,SCT080,0.00,VWS V14.01,2013-07-25 00:25:00,
2013-07-24 20:30:00,76.3,45.1,28.64,WSW,253,0.0,0.0,33,0.00,,SCT080,0.00,VWS V14.01,2013-07-25 00:30:00,
2013-07-24 20:35:00,76.1,44.9,28.64,WSW,253,0.0,0.0,33,0.00,,SCT080,0.00,VWS V14.01,2013-07-25 00:35:00,
2013-07-24 20:40:00,75.9,45.6,28.64,WSW,253,0.0,0.0,34,0.00,,SCT080,0.00,VWS V14.01,2013-07-25 00:40:00,
2013-07-24 20:45:00,75.7,46.2,28.64,WSW,253,0.0,0.0,35,0.00,,SCT080,0.00,VWS V14.01,2013-07-25 00:45:00,
2013-07-24 20:50:00,75.6,46.0,28.64,WSW,253,0.0,0.0,35,0.00,,SCT080,0.00,VWS V14.01,2013-07-25 00:50:00,
2013-07-24 20:56:00,75.6,46.0,28.64,WSW,253,0.0,0.0,35,0.00,,SCT080,0.00,VWS V14.01,2013-07-25 00:56:00,
2013-07-24 21:01:00,75.4,46.6,28.64,WSW,253,0.0,0.0,36,0.00,,SCT080,0.00,VWS V14.01,2013-07-25 01:01:00,
2013-07-24 21:06:00,75.2,46.4,28.64,WSW,253,0.0,0.0,36,0.00,,BKN085,0.00,VWS V14.01,2013-07-25 01:06:00,
2013-07-24 21:11:00,75.2,45.7,28.64,WSW,253,0.0,0.0,35,0.00,,BKN085,0.00,VWS V14.01,2013-07-25 01:11:00,
2013-07-24 21:16:00,75.0,46.3,28.64,WSW,253,0.0,0.0,36,0.00,,BKN085,0.00,VWS V14.01,2013-07-25 01:16:00,
2013-07-24 21:21:00,74.8,46.8,28.64,WSW,253,0.0,0.0,37,0.00,,BKN085,0.00,VWS V14.01,2013-07-25 01:21:00,
2013-07-24 21:26:00,74.8,46.8,28.64,WSW,253,0.0,0.0,37,0.00,,BKN085,0.00,VWS V14.01,2013-07-25 01:26:00,
2013-07-24 21:32:00,74.5,46.5,28.64,WSW,253,0.0,0.0,37,0.00,,BKN085,0.00,VWS V14.01,2013-07-25 01:32:00,
2013-07-24 21:37:00,74.5,46.5,28.67,WSW,253,0.0,0.0,37,0.00,,BKN085,0.00,VWS V14.01,2013-07-25 01:37:00,
2013-07-24 21:42:00,74.5,46.5,28.67,WSW,253,0.0,0.0,37,0.00,,BKN085,0.00,VWS V14.01,2013-07-25 01:42:00,
2013-07-24 21:47:00,74.3,46.4,28.67,WSW,253,0.0,0.0,37,0.00,,BKN085,0.00,VWS V14.01,2013-07-25 01:47:00,
2013-07-24 21:52:00,74.3,46.4,28.67,WSW,253,0.0,0.0,37,0.00,,BKN085,0.00,VWS V14.01,2013-07-25 01:52:00,
2013-07-24 21:57:00,74.5,46.5,28.67,WSW,253,0.0,0.0,37,0.00,,BKN085,0.00,VWS V14.01,2013-07-25 01:57:00,
2013-07-24 22:02:00,74.5,46.5,28.67,WSW,253,0.0,0.0,37,0.00,,BKN085,0.00,VWS V14.01,2013-07-25 02:02:00,
2013-07-24 22:07:00,74.7,45.2,28.67,WSW,253,0.0,0.0,35,0.00,,BKN080,0.00,VWS V14.01,2013-07-25 02:07:00,
2013-07-24 22:12:00,74.8,45.4,28.67,WSW,253,0.0,0.0,35,0.00,,BKN080,0.00,VWS V14.01,2013-07-25 02:12:00,
2013-07-24 22:17:00,75.0,44.8,28.67,WSW,253,0.0,0.0,34,0.00,,BKN080,0.00,VWS V14.01,2013-07-25 02:17:00,
2013-07-24 22:22:00,75.4,45.1,28.67,WSW,253,0.0,0.0,34,0.00,,BKN080,0.00,VWS V14.01,2013-07-25 02:22:00,
2013-07-24 22:27:00,75.9,45.6,28.67,WSW,253,0.0,0.0,34,0.00,,BKN080,0.00,VWS V14.01,2013-07-25 02:27:00,
2013-07-24 22:32:00,76.1,45.7,28.70,WSW,253,0.0,0.0,34,0.00,,BKN080,0.00,VWS V14.01,2013-07-25 02:32:00,
2013-07-24 22:37:00,76.1,45.7,28.70,WSW,253,0.0,0.0,34,0.00,,BKN080,0.00,VWS V14.01,2013-07-25 02:37:00,
2013-07-24 22:42:00,75.9,46.3,28.70,WSW,253,0.0,0.0,35,0.00,,BKN080,0.00,VWS V14.01,2013-07-25 02:42:00,